Historique des mesures à Cassis (13260), France
Quotidien Résumé Juillet 28, 2021 Unités:  US    Métrique   Métrique/US
Quotidien Hebdomadaire Mensuel Annuel
  Maximum: Minimum: Moyenne:
Température: 84.9 °F 63.5 °F 73.2 °F
Point de rosée: 61.2 °F 48.7 °F 53.8 °F
Humidité: 60% 42% 51%
Vitesse du vent: 20.8mph 0mph 5.9mph
Rafales: 20.8mph - -
Vent- - SW
Pression: 29.8 in 29.7 in -
Précipitations: 0 in    
Historical Graphs
 
 
Mesures pour : Juillet 28, 2021
Heure Temperature Point de rosée Pression Vent Vitesse du vent Rafales Humidité Pluie (par heure)
00:11 68.5 °F 49.6 °F 29.7 in NW 20.1 mph 20.6 mph 51% 0 in
01:11 67.6 °F 49.8 °F 29.7 in WNW 10.5 mph 13.4 mph 53% 0 in
02:11 66.9 °F 49.6 °F 29.7 in NW 17 mph 18.3 mph 54% 0 in
03:11 65.8 °F 49.3 °F 29.7 in Calm   5.6 mph 55% 0 in
04:11 64.8 °F 49.6 °F 29.7 in WNW 11.2 mph 15 mph 58% 0 in
05:11 63.9 °F 48.7 °F 29.7 in NNE 4.9 mph 6 mph 58% 0 in
06:11 63.5 °F 48.9 °F 29.7 in North 2.9 mph 7.6 mph 59% 0 in
07:11 63.5 °F 49.5 °F 29.7 in NW 20.8 mph 20.8 mph 60% 0 in
08:11 73 °F 53.2 °F 29.7 in Calm   3.1 mph 50% 0 in
09:11 72.7 °F 50.5 °F 29.7 in WNW 1.8 mph 9.2 mph 46% 0 in
10:11 70.7 °F 50.5 °F 29.7 in WSW 10.9 mph 14.3 mph 49% 0 in
11:11 75.6 °F 52 °F 29.7 in WNW 5.3 mph 17.9 mph 44% 0 in
12:11 78.8 °F 53.8 °F 29.7 in SW 10.3 mph 10.5 mph 42% 0 in
13:11 80.2 °F 56.8 °F 29.8 in SW 2 mph 8.7 mph 45% 0 in
14:11 84.9 °F 59.9 °F 29.8 in SSW 3.4 mph 9.8 mph 43% 0 in
15:11 84 °F 60.4 °F 29.8 in South 6.7 mph 7 mph 45% 0 in
16:11 82 °F 60.3 °F 29.8 in Calm   4.7 mph 48% 0 in
17:11 81.7 °F 61.2 °F 29.8 in SSE 2.5 mph 6 mph 50% 0 in
18:11 81.1 °F 60.1 °F 29.8 in ESE 2.5 mph 6 mph 49% 0 in
19:11 79.7 °F 59.5 °F 29.8 in Calm   2.7 mph 50% 0 in
20:11 76.1 °F 57.7 °F 29.8 in Calm     53% 0 in
21:11 72.5 °F 55.4 °F 29.8 in Calm   3.1 mph 55% 0 in
22:11 70.5 °F 51.4 °F 29.8 in WNW 4 mph 10.3 mph 51% 0 in
23:11 68.9 °F 50.5 °F 29.8 in WNW 4.9 mph 11.9 mph 52% 0 in
Observations météo à CASSIS
WU-History script by Weather Underground - 2 mb